nws-alerts: Checking more than four warning/county codes can delay the loading of your pages. You should use a cron job to get the data.
EllijayWeather Station Historical Data
Daily Summary for December 14, 2018 Units:  English    Metric   Both
Daily Weekly Monthly Yearly Custom
  High: Low: Average:
Temperature: 54.3 °F 48.2 °F 51.2 °F
Dew Point: 41.7 °F 26.4 °F 30.7 °F
Humidity: 74% 36% 46%
Wind Speed: 8.1mph 0mph 1.2mph
Wind Gust: 11mph - -
Wind- - SE
Pressure: 30.19 in 29.92 in -
Precipitation: 0.27 in    
Historical Graphs
 
 
Tabular Data for December 14, 2018
Time Temperature Dew Point Pressure Wind Wind Speed Wind Gust Humidity Rainfall Rate (Hourly) solar
00:04 48.7 °F 37.9 °F 30.19 in SE 0.9 mph 6 mph 66% 0 in meteobridge W/m2
00:09 48.7 °F 37.9 °F 30.19 in Calm   7 mph 66% 0 in meteobridge W/m2
00:14 48.9 °F 38.5 °F 30.19 in Calm   7 mph 67% 0 in meteobridge W/m2
00:19 49.1 °F 38.7 °F 30.19 in Calm   7 mph 67% 0 in meteobridge W/m2
00:24 49.1 °F 38.7 °F 30.19 in Calm   4 mph 67% 0 in meteobridge W/m2
00:29 49.3 °F 39.6 °F 30.18 in SE 0.9 mph 4 mph 69% 0 in meteobridge W/m2
00:34 49.3 °F 39.6 °F 30.18 in Calm   4 mph 69% 0 in meteobridge W/m2
00:39 49.3 °F 39.6 °F 30.18 in SSE 0.9 mph 7 mph 69% 0 in meteobridge W/m2
00:44 49.1 °F 39.4 °F 30.18 in SSE 0.9 mph 1 mph 69% 0 in meteobridge W/m2
00:49 48.9 °F 39.6 °F 30.18 in SE 0.9 mph 5 mph 70% 0 in meteobridge W/m2
00:54 49.1 °F 39.7 °F 30.18 in Calm   6 mph 70% 0 in meteobridge W/m2
00:59 49.3 °F 40.3 °F 30.18 in Calm   6 mph 71% 0 in meteobridge W/m2
01:04 49.3 °F 40.3 °F 30.18 in Calm   2 mph 71% 0 in meteobridge W/m2
01:09 49.3 °F 40.6 °F 30.18 in Calm   7 mph 72% 0 in meteobridge W/m2
01:14 49.5 °F 40.8 °F 30.17 in Calm   6 mph 72% 0 in meteobridge W/m2
01:19 49.5 °F 40.8 °F 30.18 in SE 6 mph 6 mph 72% 0 in meteobridge W/m2
01:24 49.6 °F 41.4 °F 30.18 in ESE 4.9 mph 7 mph 73% 0 in meteobridge W/m2
01:29 49.6 °F 41.4 °F 30.17 in SE 0.9 mph 5 mph 73% 0 in meteobridge W/m2
01:34 49.6 °F 41.4 °F 30.17 in Calm   4 mph 73% 0 in meteobridge W/m2
01:39 49.6 °F 41.4 °F 30.17 in Calm   5 mph 73% 0 in meteobridge W/m2
01:44 49.6 °F 41.7 °F 30.17 in Calm   1 mph 74% 0 in meteobridge W/m2
01:49 49.6 °F 41.7 °F 30.17 in SE 2 mph 5 mph 74% 0 in meteobridge W/m2
01:54 49.5 °F 41.5 °F 30.17 in East 2 mph 5 mph 74% 0 in meteobridge W/m2
01:59 49.6 °F 41.4 °F 30.16 in Calm   6 mph 73% 0 in meteobridge W/m2
02:04 49.6 °F 41.4 °F 30.17 in Calm   8 mph 73% 0 in meteobridge W/m2
02:09 49.6 °F 41.4 °F 30.18 in ESE 6 mph 7 mph 73% 0 in meteobridge W/m2
02:14 49.6 °F 41.4 °F 30.18 in SE 2 mph 5 mph 73% 0 in meteobridge W/m2
02:19 49.8 °F 41.2 °F 30.18 in SE 4 mph 4 mph 72% 0 in meteobridge W/m2
02:24 49.8 °F 41.2 °F 30.18 in SE 0.9 mph 3 mph 72% 0 in meteobridge W/m2
02:29 49.6 °F 41 °F 30.18 in SSE 0.9 mph 6 mph 72% 0 in meteobridge W/m2
02:34 49.6 °F 40.6 °F 30.18 in Calm   5 mph 71% 0 in meteobridge W/m2
02:39 49.6 °F 41 °F 30.18 in Calm   5 mph 72% 0 in meteobridge W/m2
02:44 49.5 °F 40.8 °F 30.18 in Calm   4 mph 72% 0 in meteobridge W/m2
02:49 49.5 °F 40.5 °F 30.17 in ESE 2 mph 5 mph 71% 0 in meteobridge W/m2
02:54 49.5 °F 40.5 °F 30.17 in ESE 2 mph 2 mph 71% 0 in meteobridge W/m2
02:59 49.3 °F 40.3 °F 30.16 in ESE 4.9 mph 6 mph 71% 0 in meteobridge W/m2
03:04 49.3 °F 39.9 °F 30.16 in Calm   6 mph 70% 0 in meteobridge W/m2
03:09 49.3 °F 39.9 °F 30.16 in SE 4.9 mph 8 mph 70% 0 in meteobridge W/m2
03:14 49.3 °F 39.6 °F 30.16 in Calm   7 mph 69% 0 in meteobridge W/m2
03:19 49.3 °F 39.2 °F 30.16 in SE 0.9 mph 1 mph 68% 0 in meteobridge W/m2
03:24 49.3 °F 38.8 °F 30.16 in ESE 2 mph 7 mph 67% 0 in meteobridge W/m2
03:29 49.1 °F 38.7 °F 30.16 in Calm   2 mph 67% 0 in meteobridge W/m2
03:34 49.1 °F 38.3 °F 30.16 in Calm   2 mph 66% 0 in meteobridge W/m2
03:39 49.1 °F 37.8 °F 30.16 in Calm   4 mph 65% 0 in meteobridge W/m2
03:44 49.1 °F 37.4 °F 30.16 in Calm   2 mph 64% 0 in meteobridge W/m2
03:49 49.1 °F 37 °F 30.16 in Calm   6 mph 63% 0 in meteobridge W/m2
03:54 48.9 °F 36.5 °F 30.17 in SE 0.9 mph 4 mph 62% 0 in meteobridge W/m2
03:59 48.9 °F 36.1 °F 30.16 in Calm   4 mph 61% 0 in meteobridge W/m2
04:04 48.9 °F 35.6 °F 30.17 in Calm     60% 0 in meteobridge W/m2
04:09 48.7 °F 34.7 °F 30.17 in Calm   5 mph 58% 0.01 in meteobridge W/m2
04:14 48.6 °F 33.6 °F 30.16 in Calm   1 mph 56% 0.01 in meteobridge W/m2
04:19 48.6 °F 33.1 °F 30.16 in Calm   3 mph 55% 0.01 in meteobridge W/m2
04:24 48.4 °F 31.6 °F 30.16 in ESE 0.9 mph 4 mph 52% 0.01 in meteobridge W/m2
04:29 48.4 °F 31.1 °F 30.15 in Calm   1 mph 51% 0.02 in meteobridge W/m2
04:34 48.4 °F 30.6 °F 30.15 in Calm   1 mph 50% 0.02 in meteobridge W/m2
04:39 48.2 °F 30 °F 30.15 in Calm   2 mph 49% 0.02 in meteobridge W/m2
04:44 48.2 °F 29.5 °F 30.15 in Calm     48% 0.02 in meteobridge W/m2
04:49 48.2 °F 28.9 °F 30.15 in Calm   2 mph 47% 0.02 in meteobridge W/m2
04:54 48.4 °F 29.1 °F 30.16 in Calm   2 mph 47% 0.02 in meteobridge W/m2
04:59 48.4 °F 28.6 °F 30.15 in Calm   1 mph 46% 0.02 in meteobridge W/m2
05:04 48.4 °F 28 °F 30.14 in Calm   2 mph 45% 0.03 in meteobridge W/m2
05:09 48.4 °F 28 °F 30.14 in SE 0.9 mph 1 mph 45% 0.02 in meteobridge W/m2
05:14 48.6 °F 27.7 °F 30.13 in Calm   5 mph 44% 0.02 in meteobridge W/m2
05:19 48.6 °F 27.7 °F 30.12 in SE 4 mph 4 mph 44% 0.02 in meteobridge W/m2
05:24 48.7 °F 27.3 °F 30.11 in Calm   5 mph 43% 0.02 in meteobridge W/m2
05:29 48.7 °F 27.3 °F 30.11 in Calm   5 mph 43% 0.01 in meteobridge W/m2
05:34 48.9 °F 27.3 °F 30.11 in Calm     43% 0.01 in meteobridge W/m2
05:39 48.9 °F 27.3 °F 30.11 in Calm   2 mph 43% 0.01 in meteobridge W/m2
05:44 48.9 °F 26.8 °F 30.10 in Calm   4 mph 42% 0.02 in meteobridge W/m2
05:49 49.1 °F 27 °F 30.12 in Calm     42% 0.02 in meteobridge W/m2
05:54 49.3 °F 27.1 °F 30.13 in ESE 2 mph 2 mph 42% 0.02 in meteobridge W/m2
05:59 49.5 °F 26.8 °F 30.13 in Calm     41% 0.02 in meteobridge W/m2
06:04 49.5 °F 26.8 °F 30.13 in Calm   1 mph 41% 0.01 in meteobridge W/m2
06:09 49.5 °F 26.8 °F 30.12 in Calm   1 mph 41% 0.02 in meteobridge W/m2
06:14 49.6 °F 27 °F 30.11 in ESE 0.9 mph 4 mph 41% 0.02 in meteobridge W/m2
06:19 49.6 °F 27 °F 30.11 in SE 2 mph 4 mph 41% 0.02 in meteobridge W/m2
06:24 49.6 °F 27 °F 30.11 in Calm   2 mph 41% 0.02 in meteobridge W/m2
06:29 49.8 °F 27.1 °F 30.12 in ESE 2 mph 4 mph 41% 0.02 in meteobridge W/m2
06:34 49.8 °F 26.4 °F 30.12 in Calm   6 mph 40% 0.02 in meteobridge W/m2
06:39 50 °F 26.6 °F 30.13 in ESE 0.9 mph 4 mph 40% 0.02 in meteobridge W/m2
06:44 50.2 °F 26.8 °F 30.12 in ESE 0.9 mph 5 mph 40% 0.01 in meteobridge W/m2
06:49 50.2 °F 26.8 °F 30.12 in Calm   5 mph 40% 0.01 in meteobridge W/m2
06:54 50.2 °F 26.8 °F 30.12 in East 2 mph 5 mph 40% 0.01 in meteobridge W/m2
06:59 50.4 °F 27 °F 30.11 in ESE 4 mph 7 mph 40% 0.01 in meteobridge W/m2
07:04 50.4 °F 27.5 °F 30.11 in SE 6 mph 7 mph 41% 0.01 in meteobridge W/m2
07:09 50.4 °F 27.5 °F 30.12 in SE 6 mph 11 mph 41% 0 in meteobridge W/m2
07:14 50.4 °F 27.5 °F 30.11 in SSE 2 mph 8 mph 41% 0 in meteobridge W/m2
07:19 50.4 °F 28.2 °F 30.11 in Calm   6 mph 42% 0 in meteobridge W/m2
07:24 50.4 °F 28.2 °F 30.11 in SE 4.9 mph 7 mph 42% 0.01 in meteobridge W/m2
07:29 50.2 °F 28 °F 30.11 in SE 4.9 mph 5 mph 42% 0.01 in meteobridge W/m2
07:34 50.4 °F 27.5 °F 30.11 in Calm   2 mph 41% 0.01 in meteobridge W/m2
07:39 50.4 °F 27.5 °F 30.11 in SE 4 mph 5 mph 41% 0.01 in meteobridge W/m2
07:44 50.4 °F 27.5 °F 30.11 in Calm   4 mph 41% 0.01 in meteobridge W/m2
07:49 50.4 °F 27.5 °F 30.11 in Calm   5 mph 41% 0.01 in meteobridge W/m2
07:54 50.4 °F 27.5 °F 30.11 in Calm   2 mph 41% 0.01 in meteobridge W/m2
07:59 50.4 °F 27.5 °F 30.11 in ESE 0.9 mph 4 mph 41% 0.01 in meteobridge W/m2
08:04 50.4 °F 27.5 °F 30.11 in Calm   4 mph 41% 0.01 in meteobridge W/m2
08:09 50.4 °F 27.5 °F 30.10 in Calm   4 mph 41% 0.01 in meteobridge W/m2
08:14 50.4 °F 27.5 °F 30.09 in SSE 4.9 mph 5 mph 41% 0.01 in meteobridge W/m2
08:19 50.4 °F 27.5 °F 30.09 in Calm   6 mph 41% 0.01 in meteobridge W/m2
08:24 50.4 °F 27.5 °F 30.09 in Calm   4 mph 41% 0 in meteobridge W/m2
08:29 50.5 °F 27.7 °F 30.09 in Calm   2 mph 41% 0 in meteobridge W/m2
08:34 50.5 °F 28.2 °F 30.08 in Calm   1 mph 42% 0 in meteobridge W/m2
08:39 50.5 °F 28.2 °F 30.08 in SE 4 mph 5 mph 42% 0 in meteobridge W/m2
08:44 50.5 °F 28.2 °F 30.08 in Calm   2 mph 42% 0 in meteobridge W/m2
08:49 50.5 °F 28.2 °F 30.08 in Calm   6 mph 42% 0 in meteobridge W/m2
08:54 50.7 °F 28.4 °F 30.08 in Calm   1 mph 42% 0 in meteobridge W/m2
08:59 50.7 °F 28.4 °F 30.09 in Calm   4 mph 42% 0 in meteobridge W/m2
09:04 50.7 °F 28.4 °F 30.08 in SE 0.9 mph 2 mph 42% 0 in meteobridge W/m2
09:09 50.9 °F 28 °F 30.07 in Calm     41% 0 in meteobridge W/m2
09:14 50.9 °F 28 °F 30.07 in Calm   2 mph 41% 0 in meteobridge W/m2
09:19 51.1 °F 28.2 °F 30.08 in Calm   1 mph 41% 0 in meteobridge W/m2
09:24 51.1 °F 28.2 °F 30.08 in SE 0.9 mph 5 mph 41% 0 in meteobridge W/m2
09:29 51.3 °F 28.4 °F 30.08 in SSE 4 mph 5 mph 41% 0 in meteobridge W/m2
09:34 51.3 °F 28.9 °F 30.08 in SE 0.9 mph 5 mph 42% 0 in meteobridge W/m2
09:39 51.3 °F 28.9 °F 30.09 in Calm   5 mph 42% 0 in meteobridge W/m2
09:44 51.3 °F 28.9 °F 30.09 in SSE 0.9 mph 4 mph 42% 0 in meteobridge W/m2
09:49 51.3 °F 28.9 °F 30.09 in SSE 4.9 mph 5 mph 42% 0 in meteobridge W/m2
09:54 51.3 °F 28.9 °F 30.09 in SE 0.9 mph 5 mph 42% 0 in meteobridge W/m2
09:59 51.1 °F 28.2 °F 30.08 in Calm   4 mph 41% 0 in meteobridge W/m2
10:04 51.1 °F 28.2 °F 30.06 in ESE 2 mph 4 mph 41% 0 in meteobridge W/m2
10:09 51.1 °F 28.2 °F 30.07 in SSE 2 mph 4 mph 41% 0 in meteobridge W/m2
10:14 51.1 °F 28.2 °F 30.08 in Calm   4 mph 41% 0 in meteobridge W/m2
10:19 51.1 °F 27.7 °F 30.08 in Calm   1 mph 40% 0 in meteobridge W/m2
10:24 51.1 °F 27.7 °F 30.08 in Calm   2 mph 40% 0 in meteobridge W/m2
10:29 51.1 °F 27.7 °F 30.08 in Calm   5 mph 40% 0 in meteobridge W/m2
10:34 51.1 °F 27.7 °F 30.08 in Calm   4 mph 40% 0 in meteobridge W/m2
10:39 51.1 °F 27.7 °F 30.08 in Calm   1 mph 40% 0 in meteobridge W/m2
10:44 51.1 °F 27.7 °F 30.08 in SE 2 mph 5 mph 40% 0 in meteobridge W/m2
10:49 51.1 °F 27.7 °F 30.08 in SE 0.9 mph 5 mph 40% 0 in meteobridge W/m2
10:54 51.1 °F 27.7 °F 30.08 in Calm   2 mph 40% 0 in meteobridge W/m2
10:59 51.1 °F 27.7 °F 30.08 in SE 2 mph 4 mph 40% 0 in meteobridge W/m2
11:04 51.1 °F 27.7 °F 30.08 in SE 2 mph 5 mph 40% 0 in meteobridge W/m2
11:09 51.1 °F 27.7 °F 30.08 in Calm   2 mph 40% 0 in meteobridge W/m2
11:14 51.1 °F 27.7 °F 30.07 in Calm   2 mph 40% 0 in meteobridge W/m2
11:19 51.1 °F 27.7 °F 30.07 in Calm   5 mph 40% 0 in meteobridge W/m2
11:24 50.9 °F 27.5 °F 30.07 in East 0.9 mph 4 mph 40% 0 in meteobridge W/m2
11:29 51.1 °F 27.7 °F 30.07 in SE 0.9 mph 5 mph 40% 0 in meteobridge W/m2
11:34 50.9 °F 27.5 °F 30.07 in Calm   2 mph 40% 0 in meteobridge W/m2
11:39 51.1 °F 27.7 °F 30.06 in ESE 4 mph 5 mph 40% 0 in meteobridge W/m2
11:44 51.1 °F 27.7 °F 30.06 in Calm   1 mph 40% 0 in meteobridge W/m2
11:49 51.1 °F 27.7 °F 30.05 in Calm   7 mph 40% 0 in meteobridge W/m2
11:54 51.3 °F 27.7 °F 30.05 in Calm   4 mph 40% 0 in meteobridge W/m2
11:59 51.3 °F 27.7 °F 30.05 in SE 6 mph 6 mph 40% 0 in meteobridge W/m2
12:04 51.4 °F 27.9 °F 30.05 in SE 2 mph 5 mph 40% 0 in meteobridge W/m2
12:09 51.4 °F 27.9 °F 30.04 in SE 6.9 mph 7 mph 40% 0 in meteobridge W/m2
12:14 51.4 °F 28.6 °F 30.03 in SE 2 mph 7 mph 41% 0 in meteobridge W/m2
12:19 51.6 °F 28.8 °F 30.03 in Calm   5 mph 41% 0 in meteobridge W/m2
12:24 51.6 °F 29.3 °F 30.03 in SSE 6 mph 6 mph 42% 0 in meteobridge W/m2
12:29 51.6 °F 29.3 °F 30.02 in ESE 0.9 mph 6 mph 42% 0 in meteobridge W/m2
12:34 51.6 °F 29.3 °F 30.02 in ESE 2 mph 5 mph 42% 0 in meteobridge W/m2
12:39 51.8 °F 29.5 °F 30.02 in SE 6.9 mph 7 mph 42% 0 in meteobridge W/m2
12:44 52 °F 29.7 °F 30.02 in SE 4 mph 7 mph 42% 0 in meteobridge W/m2
12:49 52 °F 29.7 °F 30.02 in SE 4 mph 9 mph 42% 0 in meteobridge W/m2
12:54 52 °F 29.7 °F 30.02 in SE 4.9 mph 7 mph 42% 0 in meteobridge W/m2
12:59 52 °F 30.2 °F 30.01 in SE 4 mph 9 mph 43% 0 in meteobridge W/m2
13:04 52.2 °F 30.4 °F 30.01 in Calm   4 mph 43% 0 in meteobridge W/m2
13:09 52.2 °F 30.9 °F 30.01 in SE 2 mph 6 mph 44% 0 in meteobridge W/m2
13:14 52.2 °F 30.9 °F 30.01 in SE 0.9 mph 4 mph 44% 0 in meteobridge W/m2
13:19 52.2 °F 31.5 °F 30.01 in SE 0.9 mph 7 mph 45% 0 in meteobridge W/m2
13:24 52.2 °F 31.5 °F 30.01 in Calm   5 mph 45% 0 in meteobridge W/m2
13:29 52.2 °F 31.5 °F 30.01 in SE 2 mph 8 mph 45% 0 in meteobridge W/m2
13:34 52 °F 31.3 °F 30.01 in Calm   4 mph 45% 0 in meteobridge W/m2
13:39 52 °F 30.7 °F 30.01 in Calm   8 mph 44% 0 in meteobridge W/m2
13:44 51.8 °F 31.1 °F 30.01 in ESE 4 mph 6 mph 45% 0 in meteobridge W/m2
13:49 51.6 °F 30.9 °F 30.01 in SE 2 mph 8 mph 45% 0 in meteobridge W/m2
13:54 51.8 °F 31.1 °F 30.01 in Calm   10 mph 45% 0 in meteobridge W/m2
13:59 51.8 °F 31.1 °F 30.01 in SE 4 mph 6 mph 45% 0 in meteobridge W/m2
14:04 51.8 °F 31.1 °F 30.01 in SSE 0.9 mph 7 mph 45% 0 in meteobridge W/m2
14:09 51.8 °F 31.1 °F 30.01 in SE 4 mph 6 mph 45% 0 in meteobridge W/m2
14:14 51.8 °F 31.6 °F 30.01 in Calm   5 mph 46% 0 in meteobridge W/m2
14:19 51.6 °F 30.9 °F 30.01 in ESE 0.9 mph 4 mph 45% 0 in meteobridge W/m2
14:24 51.6 °F 30.9 °F 30.00 in SE 4.9 mph 5 mph 45% 0.01 in meteobridge W/m2
14:29 51.6 °F 30.4 °F 30.00 in Calm   1 mph 44% 0.01 in meteobridge W/m2
14:34 51.6 °F 29.8 °F 30.00 in ESE 0.9 mph 1 mph 43% 0.01 in meteobridge W/m2
14:39 51.6 °F 29.8 °F 30.00 in SSE 2 mph 2 mph 43% 0.01 in meteobridge W/m2
14:44 51.6 °F 29.8 °F 30.00 in ESE 4 mph 4 mph 43% 0.01 in meteobridge W/m2
14:49 51.8 °F 29.5 °F 30.01 in SE 0.9 mph 4 mph 42% 0.01 in meteobridge W/m2
14:54 52 °F 29.7 °F 30.00 in SE 2 mph 4 mph 42% 0.01 in meteobridge W/m2
14:59 52 °F 30.2 °F 29.99 in Calm   2 mph 43% 0.01 in meteobridge W/m2
15:04 52.2 °F 30.4 °F 30.00 in Calm   9 mph 43% 0.01 in meteobridge W/m2
15:09 52.2 °F 30.4 °F 30.00 in Calm   4 mph 43% 0.01 in meteobridge W/m2
15:14 52.2 °F 30.4 °F 30.01 in Calm   1 mph 43% 0.01 in meteobridge W/m2
15:19 52.3 °F 31.1 °F 30.01 in Calm   1 mph 44% 0 in meteobridge W/m2
15:24 52.3 °F 30.6 °F 30.01 in Calm     43% 0 in meteobridge W/m2
15:29 52.3 °F 30.6 °F 30.01 in Calm   2 mph 43% 0 in meteobridge W/m2
15:34 52.3 °F 30.6 °F 30.00 in SE 2 mph 3 mph 43% 0.01 in meteobridge W/m2
15:39 52.3 °F 30.6 °F 30.00 in SE 2 mph 2 mph 43% 0.01 in meteobridge W/m2
15:44 52.3 °F 30.6 °F 29.99 in SE 0.9 mph 2 mph 43% 0.02 in meteobridge W/m2
15:49 52.2 °F 29.8 °F 29.99 in ESE 2 mph 5 mph 42% 0.02 in meteobridge W/m2
15:54 52.2 °F 29.8 °F 29.99 in ESE 2 mph 7 mph 42% 0.02 in meteobridge W/m2
15:59 52.2 °F 29.8 °F 29.99 in East 4.9 mph 9 mph 42% 0.02 in meteobridge W/m2
16:04 52.2 °F 29.8 °F 29.98 in ESE 4 mph 4 mph 42% 0.02 in meteobridge W/m2
16:09 52.2 °F 29.8 °F 29.99 in Calm   1 mph 42% 0.03 in meteobridge W/m2
16:14 52.2 °F 29.8 °F 29.99 in ESE 4.9 mph 7 mph 42% 0.04 in meteobridge W/m2
16:19 52.2 °F 29.8 °F 29.98 in Calm   2 mph 42% 0.04 in meteobridge W/m2
16:24 52.2 °F 29.1 °F 29.98 in SSE 0.9 mph 2 mph 41% 0.04 in meteobridge W/m2
16:29 52.2 °F 29.1 °F 29.97 in ESE 2 mph 4 mph 41% 0.04 in meteobridge W/m2
16:34 52.2 °F 28.6 °F 29.97 in ESE 0.9 mph 7 mph 40% 0.03 in meteobridge W/m2
16:39 52.2 °F 28.6 °F 29.96 in Calm   4 mph 40% 0.03 in meteobridge W/m2
16:44 52.2 °F 28.6 °F 29.96 in SE 0.9 mph 6 mph 40% 0.02 in meteobridge W/m2
16:49 52.2 °F 28.6 °F 29.96 in SE 4.9 mph 5 mph 40% 0.02 in meteobridge W/m2
16:54 52.3 °F 28.8 °F 29.96 in Calm   6 mph 40% 0.02 in meteobridge W/m2
16:59 52.3 °F 28.8 °F 29.95 in SE 2 mph 7 mph 40% 0.02 in meteobridge W/m2
17:04 52.5 °F 28.2 °F 29.94 in ESE 0.9 mph 1 mph 39% 0.02 in meteobridge W/m2
17:09 52.5 °F 28.2 °F 29.94 in Calm   2 mph 39% 0.02 in meteobridge W/m2
17:14 52.7 °F 28.4 °F 29.94 in Calm     39% 0 in meteobridge W/m2
17:19 52.9 °F 28.6 °F 29.93 in Calm     39% 0 in meteobridge W/m2
17:24 52.9 °F 28.6 °F 29.94 in Calm   1 mph 39% 0 in meteobridge W/m2
17:29 53.1 °F 28 °F 29.94 in Calm   3 mph 38% 0 in meteobridge W/m2
17:34 53.1 °F 28 °F 29.94 in Calm     38% 0 in meteobridge W/m2
17:39 53.1 °F 28 °F 29.95 in Calm     38% 0 in meteobridge W/m2
17:44 52.9 °F 28 °F 29.95 in Calm   1 mph 38% 0 in meteobridge W/m2
17:49 52.9 °F 28 °F 29.96 in Calm     38% 0 in meteobridge W/m2
17:54 52.9 °F 28 °F 29.97 in Calm     38% 0 in meteobridge W/m2
17:59 53.4 °F 27.9 °F 29.98 in SE 2 mph 4 mph 37% 0 in meteobridge W/m2
18:04 53.8 °F 27.5 °F 29.98 in Calm   4 mph 36% 0 in meteobridge W/m2
18:09 54.1 °F 28.4 °F 29.98 in ESE 0.9 mph 2 mph 37% 0 in meteobridge W/m2
18:14 54.3 °F 28.6 °F 29.97 in SE 2 mph 4 mph 37% 0 in meteobridge W/m2
18:19 54.3 °F 28.6 °F 29.98 in East 4 mph 4 mph 37% 0 in meteobridge W/m2
18:24 54.3 °F 29.3 °F 29.98 in Calm     38% 0 in meteobridge W/m2
18:29 54.3 °F 29.8 °F 29.99 in Calm     39% 0 in meteobridge W/m2
18:34 54.1 °F 30.4 °F 29.99 in SE 0.9 mph 2 mph 40% 0 in meteobridge W/m2
18:39 54 °F 30.2 °F 29.99 in SSE 8.1 mph 8 mph 40% 0 in meteobridge W/m2
18:44 54 °F 30.2 °F 29.99 in SE 0.9 mph 5 mph 40% 0 in meteobridge W/m2
18:49 53.8 °F 30 °F 29.99 in Calm     40% 0 in meteobridge W/m2
18:54 53.6 °F 29.8 °F 29.99 in Calm   6 mph 40% 0 in meteobridge W/m2
18:59 53.6 °F 29.8 °F 29.98 in Calm     40% 0 in meteobridge W/m2
19:04 53.4 °F 30.4 °F 29.98 in SSE 0.9 mph 1 mph 41% 0 in meteobridge W/m2
19:09 53.4 °F 30.4 °F 29.98 in Calm   1 mph 41% 0 in meteobridge W/m2
19:14 53.2 °F 30.2 °F 29.98 in Calm   2 mph 41% 0 in meteobridge W/m2
19:19 53.2 °F 30.2 °F 29.98 in ESE 2 mph 5 mph 41% 0 in meteobridge W/m2
19:24 53.2 °F 30.7 °F 29.98 in Calm   7 mph 42% 0 in meteobridge W/m2
19:29 53.2 °F 30.7 °F 29.98 in Calm   5 mph 42% 0 in meteobridge W/m2
19:34 53.2 °F 31.3 °F 29.97 in Calm   4 mph 43% 0 in meteobridge W/m2
19:39 53.2 °F 31.8 °F 29.96 in SE 0.9 mph 6 mph 44% 0 in meteobridge W/m2
19:44 53.2 °F 31.8 °F 29.97 in Calm   1 mph 44% 0 in meteobridge W/m2
19:49 53.2 °F 32.4 °F 29.97 in SE 2 mph 5 mph 45% 0 in meteobridge W/m2
19:54 53.2 °F 32.4 °F 29.98 in ESE 0.9 mph 4 mph 45% 0 in meteobridge W/m2
19:59 53.2 °F 32.4 °F 29.98 in Calm     45% 0 in meteobridge W/m2
20:04 53.2 °F 32.4 °F 29.97 in Calm   1 mph 45% 0 in meteobridge W/m2
20:09 53.2 °F 32.4 °F 29.96 in SE 4.9 mph 5 mph 45% 0 in meteobridge W/m2
20:14 53.4 °F 32.5 °F 29.97 in Calm   2 mph 45% 0 in meteobridge W/m2
20:19 53.4 °F 32 °F 29.98 in Calm   6 mph 44% 0.02 in meteobridge W/m2
20:24 53.2 °F 31.3 °F 29.98 in Calm   2 mph 43% 0.08 in meteobridge W/m2
20:29 53.1 °F 30.6 °F 29.98 in Calm   4 mph 42% 0.09 in meteobridge W/m2
20:34 53.1 °F 30 °F 29.97 in SE 2 mph 4 mph 41% 0.1 in meteobridge W/m2
20:39 52.9 °F 29.8 °F 29.96 in Calm   1 mph 41% 0.1 in meteobridge W/m2
20:44 52.9 °F 29.3 °F 29.95 in ESE 0.9 mph 4 mph 40% 0.1 in meteobridge W/m2
20:49 52.7 °F 29.1 °F 29.97 in ESE 4.9 mph 9 mph 40% 0.1 in meteobridge W/m2
20:54 52.7 °F 28.4 °F 29.96 in Calm   6 mph 39% 0.11 in meteobridge W/m2
20:59 52.7 °F 28.4 °F 29.96 in ESE 4 mph 5 mph 39% 0.11 in meteobridge W/m2
21:04 52.7 °F 28.4 °F 29.96 in Calm   1 mph 39% 0.11 in meteobridge W/m2
21:09 52.7 °F 27.9 °F 29.98 in ESE 0.9 mph 4 mph 38% 0.11 in meteobridge W/m2
21:14 52.7 °F 27.9 °F 29.98 in Calm   4 mph 38% 0.11 in meteobridge W/m2
21:19 52.7 °F 27.9 °F 29.99 in Calm   1 mph 38% 0.09 in meteobridge W/m2
21:24 52.5 °F 27.7 °F 30.00 in Calm     38% 0.05 in meteobridge W/m2
21:29 52.7 °F 27.9 °F 29.99 in SE 0.9 mph 1 mph 38% 0.02 in meteobridge W/m2
21:34 52.7 °F 27.9 °F 29.99 in Calm   5 mph 38% 0.01 in meteobridge W/m2
21:39 52.5 °F 27.7 °F 29.98 in Calm     38% 0.02 in meteobridge W/m2
21:44 52.5 °F 27.7 °F 29.99 in Calm     38% 0.02 in meteobridge W/m2
21:49 52.5 °F 27.7 °F 29.98 in Calm     38% 0.02 in meteobridge W/m2
21:54 52.3 °F 27.5 °F 29.98 in Calm   4 mph 38% 0.01 in meteobridge W/m2
21:59 52.2 °F 27.3 °F 29.98 in Calm   4 mph 38% 0.01 in meteobridge W/m2
22:04 52.2 °F 27.3 °F 29.98 in South 2 mph 6 mph 38% 0.01 in meteobridge W/m2
22:09 52.2 °F 27.3 °F 29.98 in Calm   2 mph 38% 0.02 in meteobridge W/m2
22:14 52.2 °F 27.3 °F 29.99 in SE 0.9 mph 1 mph 38% 0.03 in meteobridge W/m2
22:19 52.2 °F 27.3 °F 29.97 in Calm     38% 0.03 in meteobridge W/m2
22:24 52.2 °F 27.3 °F 29.97 in SE 0.9 mph 4 mph 38% 0.03 in meteobridge W/m2
22:29 52.2 °F 26.6 °F 29.96 in SE 4.9 mph 5 mph 37% 0.04 in meteobridge W/m2
22:34 52.3 °F 27.5 °F 29.94 in Calm   5 mph 38% 0.04 in meteobridge W/m2
22:39 52.3 °F 26.8 °F 29.96 in SE 4 mph 5 mph 37% 0.03 in meteobridge W/m2
22:44 52.5 °F 27 °F 29.96 in East 2 mph 6 mph 37% 0.03 in meteobridge W/m2
22:49 52.5 °F 27 °F 29.96 in SE 4 mph 6 mph 37% 0.03 in meteobridge W/m2
22:54 52.9 °F 27.3 °F 29.96 in ESE 4 mph 5 mph 37% 0.03 in meteobridge W/m2
22:59 52.9 °F 27.3 °F 29.96 in Calm   5 mph 37% 0.04 in meteobridge W/m2
23:04 52.7 °F 27.1 °F 29.95 in SE 6 mph 6 mph 37% 0.04 in meteobridge W/m2
23:09 52.5 °F 27 °F 29.94 in Calm   5 mph 37% 0.03 in meteobridge W/m2
23:14 52.5 °F 27 °F 29.95 in Calm   6 mph 37% 0.02 in meteobridge W/m2
23:19 52.9 °F 27.3 °F 29.95 in SE 2 mph 5 mph 37% 0.02 in meteobridge W/m2
23:24 52.9 °F 27.3 °F 29.93 in ESE 0.9 mph 7 mph 37% 0.02 in meteobridge W/m2
23:29 52.9 °F 27.3 °F 29.92 in SE 2 mph 4 mph 37% 0.01 in meteobridge W/m2
23:34 52.9 °F 27.3 °F 29.94 in SE 0.9 mph 1 mph 37% 0.01 in meteobridge W/m2
23:39 53.1 °F 27.5 °F 29.94 in Calm   1 mph 37% 0.01 in meteobridge W/m2
23:44 52.9 °F 27.3 °F 29.93 in Calm     37% 0.01 in meteobridge W/m2
23:49 52.9 °F 27.3 °F 29.94 in Calm   5 mph 37% 0.01 in meteobridge W/m2
23:54 52.9 °F 27.3 °F 29.95 in SE 4 mph 4 mph 37% 0.01 in meteobridge W/m2
23:59 52.9 °F 27.3 °F 29.94 in SE 0.9 mph 8 mph 37% 0 in meteobridge W/m2
EllijayWeather
Compliments of Weather Underground - 2.5 mb